COYOTE (LAKE MENDOCINO) (COY)

Elevation: 720' · RUSSIAN R basin · Operator: US Army Corps of Engineers

Provisional data, subject to change.
Query executed Thursday at 10:29:46   clock

Select a sensor type for a plot of data.
Note: Reservoir Flows are daily averages.

Earlier

Date RES ELE    STORAGE    RES CHG    TOC STO    OUTFLOW    INFLOW    PPT INC    TEMP MN    TEMP MX    EVP PAN   
 FEET   AF   AF   AF   CFS   CFS   INCHES   DEG F   DEG F   INCHES  
07/01/2014 722.72 45298 -203 86370 138 52 0.00 15 36 0.34
07/02/2014 722.59 45110 -188 86370 144 64 0.00 14 35 0.33
07/03/2014 722.43 44879 -231 86370 144 44 0.00 15 36 0.33
07/04/2014 722.27 44648 -231 86370 144 43 0.00 14 36 0.33
07/05/2014 722.11 44418 -230 86370 144 44 0.00 11 36 0.34
07/06/2014 721.95 44188 -230 86370 144 44 0.00 11 39 0.35
07/07/2014 721.80 43973 -215 86370 141 47 0.00 16 40 0.30
07/08/2014 721.68 43802 -171 86370 140 68 0.00 19 38 0.30
07/09/2014 721.58 43659 -143 86370 138 80 0.00 15 34 0.32
07/10/2014 721.42 43431 -228 86370 138 38 0.00 13 32 0.31
07/11/2014 721.27 43218 -213 86370 144 50 0.00 14 30 0.30
07/12/2014 721.11 42990 -228 86370 148 47 0.00 11 35 0.30
07/13/2014 720.95 42764 -226 86370 152 54 0.00 13 38 0.34
07/14/2014 720.79 42538 -226 86370 156 59 0.00 15 44 0.38
07/15/2014 720.64 42326 -212 86370 -- -- -- -- -- --
07/16/2014 720.47 42087 -239 86370 158 45 0.00 17 28 0.17
07/17/2014 720.30 41849 -238 86370 153 46 0.00 16 32 0.29
07/18/2014 720.15 41639 -210 86370 150 57 0.00 14 33 0.29
07/19/2014 720.01 41444 -195 86370 152 67 0.00 14 35 0.31
07/20/2014 719.85 41221 -223 86370 149 50 0.00 15 34 0.30
07/21/2014 719.72 41041 -180 86370 148 66 0.00 16 29 0.20
07/22/2014 719.58 40847 -194 86370 149 63 0.00 15 31 0.26
07/23/2014 719.41 40613 -234 86370 149 43 0.00 16 30 0.28
07/24/2014 719.24 40379 -234 86370 153 49 0.00 11 35 0.31
07/25/2014 719.05 40119 -260 86370 155 39 0.00 14 39 0.34
07/26/2014 718.87 39873 -246 86370 155 46 0.00 14 40 0.34
07/27/2014 718.71 39655 -218 86370 155 59 0.00 19 41 0.32
07/28/2014 718.56 39451 -204 86370 154 66 0.00 15 40 0.34
07/29/2014 718.41 39249 -202 86370 155 68 0.00 14 40 0.33
07/30/2014 718.25 39033 -216 86370 156 62 0.00 18 41 0.34
07/31/2014 -- -- -- -- -- -- -- -- -- --

Later | Latest

Warning! This data is preliminary and subject to revision.

Download Data Now Download Data Now | Show COY Map | Plot COY Data | 1 Month COY Data | Real-Time COY Data | COY Info